sensor_id;sensor_type;location;lat;lon;timestamp;pressure;altitude;pressure_sealevel;temperature;humidity
84924;BME280;75286;52.218;5.180;2024-03-29T00:01:55;99014.81;;;9.56;66.22
84924;BME280;75286;52.218;5.180;2024-03-29T00:04:20;99008.28;;;9.53;66.73
84924;BME280;75286;52.218;5.180;2024-03-29T00:06:46;99011.88;;;9.52;66.77
84924;BME280;75286;52.218;5.180;2024-03-29T00:09:11;98997.63;;;9.49;66.60
84924;BME280;75286;52.218;5.180;2024-03-29T00:11:36;99011.88;;;9.52;66.63
84924;BME280;75286;52.218;5.180;2024-03-29T00:14:02;99014.13;;;9.48;66.87
84924;BME280;75286;52.218;5.180;2024-03-29T00:16:27;99002.44;;;9.46;66.59
84924;BME280;75286;52.218;5.180;2024-03-29T00:18:52;99008.94;;;9.48;66.82
84924;BME280;75286;52.218;5.180;2024-03-29T00:21:18;99012.94;;;9.44;66.79
84924;BME280;75286;52.218;5.180;2024-03-29T00:23:43;99014.91;;;9.49;66.62
84924;BME280;75286;52.218;5.180;2024-03-29T00:26:12;99013.75;;;9.45;66.76
84924;BME280;75286;52.218;5.180;2024-03-29T00:28:38;99007.03;;;9.44;66.96
84924;BME280;75286;52.218;5.180;2024-03-29T00:31:04;99012.19;;;9.44;66.60
84924;BME280;75286;52.218;5.180;2024-03-29T00:33:29;99020.34;;;9.41;67.08
84924;BME280;75286;52.218;5.180;2024-03-29T00:35:55;99017.09;;;9.45;67.30
84924;BME280;75286;52.218;5.180;2024-03-29T00:38:21;99015.41;;;9.39;66.92
84924;BME280;75286;52.218;5.180;2024-03-29T00:40:46;99023.06;;;9.46;66.45
84924;BME280;75286;52.218;5.180;2024-03-29T00:43:12;99025.31;;;9.42;66.88
84924;BME280;75286;52.218;5.180;2024-03-29T00:45:37;99014.47;;;9.34;66.96
84924;BME280;75286;52.218;5.180;2024-03-29T00:48:03;99034.25;;;9.40;66.87
84924;BME280;75286;52.218;5.180;2024-03-29T00:50:28;99023.47;;;9.31;66.60
84924;BME280;75286;52.218;5.180;2024-03-29T00:52:54;99031.00;;;9.33;66.90
84924;BME280;75286;52.218;5.180;2024-03-29T00:55:19;99024.25;;;9.32;66.96
84924;BME280;75286;52.218;5.180;2024-03-29T00:57:44;99037.50;;;9.35;66.90
84924;BME280;75286;52.218;5.180;2024-03-29T01:00:10;99041.66;;;9.36;67.05
84924;BME280;75286;52.218;5.180;2024-03-29T01:02:36;99037.16;;;9.32;67.00
84924;BME280;75286;52.218;5.180;2024-03-29T01:05:01;99038.72;;;9.33;66.65
84924;BME280;75286;52.218;5.180;2024-03-29T01:07:26;99033.06;;;9.24;66.88
84924;BME280;75286;52.218;5.180;2024-03-29T01:09:52;99039.66;;;9.20;67.11
84924;BME280;75286;52.218;5.180;2024-03-29T01:12:17;99044.44;;;9.17;67.03
84924;BME280;75286;52.218;5.180;2024-03-29T01:14:44;99047.81;;;9.17;67.41
84924;BME280;75286;52.218;5.180;2024-03-29T01:17:09;99044.31;;;9.12;67.73
84924;BME280;75286;52.218;5.180;2024-03-29T01:19:34;99042.44;;;9.19;67.11
84924;BME280;75286;52.218;5.180;2024-03-29T01:22:00;99035.16;;;9.16;67.07
84924;BME280;75286;52.218;5.180;2024-03-29T01:24:25;99040.16;;;9.10;67.45
84924;BME280;75286;52.218;5.180;2024-03-29T01:26:50;99030.69;;;9.04;67.91
84924;BME280;75286;52.218;5.180;2024-03-29T01:29:16;99035.66;;;9.06;67.73
84924;BME280;75286;52.218;5.180;2024-03-29T01:31:42;99038.22;;;9.06;67.92
84924;BME280;75286;52.218;5.180;2024-03-29T01:34:07;99036.44;;;9.06;67.96
84924;BME280;75286;52.218;5.180;2024-03-29T01:36:33;99020.13;;;8.94;68.29
84924;BME280;75286;52.218;5.180;2024-03-29T01:38:58;99027.97;;;8.99;68.10
84924;BME280;75286;52.218;5.180;2024-03-29T01:41:25;99035.38;;;8.96;68.39
84924;BME280;75286;52.218;5.180;2024-03-29T01:43:52;99020.69;;;8.96;68.31
84924;BME280;75286;52.218;5.180;2024-03-29T01:46:23;99012.03;;;8.91;68.71
84924;BME280;75286;52.218;5.180;2024-03-29T01:48:50;99018.13;;;8.96;68.40
84924;BME280;75286;52.218;5.180;2024-03-29T01:51:16;99000.94;;;8.90;68.48
84924;BME280;75286;52.218;5.180;2024-03-29T01:53:43;99004.44;;;8.96;68.88
84924;BME280;75286;52.218;5.180;2024-03-29T01:56:09;98999.06;;;8.97;68.82
84924;BME280;75286;52.218;5.180;2024-03-29T01:58:38;98990.84;;;8.89;69.13
84924;BME280;75286;52.218;5.180;2024-03-29T02:01:05;98993.63;;;8.87;68.68
84924;BME280;75286;52.218;5.180;2024-03-29T02:03:36;98986.47;;;8.89;68.63
84924;BME280;75286;52.218;5.180;2024-03-29T02:06:01;98998.34;;;8.90;69.37
84924;BME280;75286;52.218;5.180;2024-03-29T02:08:29;99001.59;;;8.86;69.17
84924;BME280;75286;52.218;5.180;2024-03-29T02:10:55;99010.31;;;8.85;69.38
84924;BME280;75286;52.218;5.180;2024-03-29T02:13:21;99004.38;;;8.84;68.87
84924;BME280;75286;52.218;5.180;2024-03-29T02:15:46;98996.34;;;8.74;69.76
84924;BME280;75286;52.218;5.180;2024-03-29T02:18:12;99001.44;;;8.81;69.05
84924;BME280;75286;52.218;5.180;2024-03-29T02:20:37;99007.47;;;8.75;69.68
84924;BME280;75286;52.218;5.180;2024-03-29T02:23:07;99018.25;;;8.83;69.44
84924;BME280;75286;52.218;5.180;2024-03-29T02:25:35;99019.91;;;8.78;69.74
84924;BME280;75286;52.218;5.180;2024-03-29T02:28:02;99011.59;;;8.76;69.65
84924;BME280;75286;52.218;5.180;2024-03-29T02:30:30;99008.00;;;8.77;69.52
84924;BME280;75286;52.218;5.180;2024-03-29T02:32:57;99031.59;;;8.80;69.67
84924;BME280;75286;52.218;5.180;2024-03-29T02:35:23;99027.28;;;8.74;69.66
84924;BME280;75286;52.218;5.180;2024-03-29T02:37:48;99018.38;;;8.70;69.78
84924;BME280;75286;52.218;5.180;2024-03-29T02:40:13;99025.13;;;8.71;69.88
84924;BME280;75286;52.218;5.180;2024-03-29T02:42:39;99026.69;;;8.72;69.48
84924;BME280;75286;52.218;5.180;2024-03-29T02:45:04;99018.69;;;8.62;69.67
84924;BME280;75286;52.218;5.180;2024-03-29T02:47:30;99035.47;;;8.64;69.96
84924;BME280;75286;52.218;5.180;2024-03-29T02:49:55;99035.91;;;8.61;69.53
84924;BME280;75286;52.218;5.180;2024-03-29T02:52:21;99037.13;;;8.59;70.40
84924;BME280;75286;52.218;5.180;2024-03-29T02:54:46;99037.50;;;8.62;69.99
84924;BME280;75286;52.218;5.180;2024-03-29T02:57:11;99033.41;;;8.55;70.08
84924;BME280;75286;52.218;5.180;2024-03-29T02:59:39;99043.50;;;8.56;70.62
84924;BME280;75286;52.218;5.180;2024-03-29T03:02:05;99035.56;;;8.58;69.84
84924;BME280;75286;52.218;5.180;2024-03-29T03:04:30;99043.28;;;8.58;70.11
84924;BME280;75286;52.218;5.180;2024-03-29T03:06:55;99039.00;;;8.52;70.12
84924;BME280;75286;52.218;5.180;2024-03-29T03:09:31;99037.19;;;8.52;70.31
84924;BME280;75286;52.218;5.180;2024-03-29T03:12:15;99034.59;;;8.52;69.86
84924;BME280;75286;52.218;5.180;2024-03-29T03:14:41;99033.59;;;8.53;70.30
84924;BME280;75286;52.218;5.180;2024-03-29T03:17:07;99038.75;;;8.53;70.06
84924;BME280;75286;52.218;5.180;2024-03-29T03:19:32;99046.28;;;8.55;69.92
84924;BME280;75286;52.218;5.180;2024-03-29T03:21:57;99056.78;;;8.53;70.16
84924;BME280;75286;52.218;5.180;2024-03-29T03:24:23;99053.00;;;8.56;69.77
84924;BME280;75286;52.218;5.180;2024-03-29T03:26:48;99050.38;;;8.62;69.86
84924;BME280;75286;52.218;5.180;2024-03-29T03:29:13;99058.91;;;8.63;69.87
84924;BME280;75286;52.218;5.180;2024-03-29T03:31:39;99061.88;;;8.60;69.69
84924;BME280;75286;52.218;5.180;2024-03-29T03:34:04;99054.16;;;8.60;69.24
84924;BME280;75286;52.218;5.180;2024-03-29T03:36:29;99053.59;;;8.58;69.81
84924;BME280;75286;52.218;5.180;2024-03-29T03:38:55;99051.78;;;8.58;69.91
84924;BME280;75286;52.218;5.180;2024-03-29T03:41:20;99051.38;;;8.61;69.18
84924;BME280;75286;52.218;5.180;2024-03-29T03:43:46;99045.28;;;8.56;69.80
84924;BME280;75286;52.218;5.180;2024-03-29T03:46:11;99052.38;;;8.60;69.64
84924;BME280;75286;52.218;5.180;2024-03-29T03:48:37;99059.25;;;8.66;69.25
84924;BME280;75286;52.218;5.180;2024-03-29T03:51:02;99067.78;;;8.67;69.60
84924;BME280;75286;52.218;5.180;2024-03-29T03:53:28;99050.16;;;8.64;69.23
84924;BME280;75286;52.218;5.180;2024-03-29T03:55:53;99059.59;;;8.70;69.46
84924;BME280;75286;52.218;5.180;2024-03-29T03:58:18;99064.16;;;8.75;69.22
84924;BME280;75286;52.218;5.180;2024-03-29T04:00:44;99051.72;;;8.65;68.98
84924;BME280;75286;52.218;5.180;2024-03-29T04:03:09;99057.63;;;8.72;69.11
84924;BME280;75286;52.218;5.180;2024-03-29T04:05:36;99063.13;;;8.76;69.28
84924;BME280;75286;52.218;5.180;2024-03-29T04:08:02;99071.09;;;8.74;69.23
84924;BME280;75286;52.218;5.180;2024-03-29T04:10:27;99066.94;;;8.73;68.82
84924;BME280;75286;52.218;5.180;2024-03-29T04:12:53;99071.03;;;8.81;69.36
84924;BME280;75286;52.218;5.180;2024-03-29T04:15:19;99075.66;;;8.72;69.17
84924;BME280;75286;52.218;5.180;2024-03-29T04:17:59;99065.53;;;8.71;69.11
84924;BME280;75286;52.218;5.180;2024-03-29T04:20:24;99064.94;;;8.75;69.13
84924;BME280;75286;52.218;5.180;2024-03-29T04:22:49;99061.19;;;8.71;69.39
84924;BME280;75286;52.218;5.180;2024-03-29T04:25:15;99065.13;;;8.74;69.50
84924;BME280;75286;52.218;5.180;2024-03-29T04:27:40;99061.34;;;8.76;69.25
84924;BME280;75286;52.218;5.180;2024-03-29T04:30:06;99061.47;;;8.81;69.14
84924;BME280;75286;52.218;5.180;2024-03-29T04:32:32;99066.63;;;8.81;69.31
84924;BME280;75286;52.218;5.180;2024-03-29T04:34:57;99063.69;;;8.78;69.50
84924;BME280;75286;52.218;5.180;2024-03-29T04:37:22;99059.13;;;8.80;69.85
84924;BME280;75286;52.218;5.180;2024-03-29T04:39:48;99059.69;;;8.82;69.48
84924;BME280;75286;52.218;5.180;2024-03-29T04:42:13;99067.84;;;8.79;70.07
84924;BME280;75286;52.218;5.180;2024-03-29T04:44:40;99059.47;;;8.83;70.12
84924;BME280;75286;52.218;5.180;2024-03-29T04:47:05;99051.75;;;8.83;70.06
84924;BME280;75286;52.218;5.180;2024-03-29T04:49:31;99056.06;;;8.89;69.56
84924;BME280;75286;52.218;5.180;2024-03-29T04:52:02;99068.94;;;8.89;69.94
84924;BME280;75286;52.218;5.180;2024-03-29T04:54:28;99065.22;;;8.85;70.16
84924;BME280;75286;52.218;5.180;2024-03-29T04:56:53;99058.63;;;8.89;70.05
84924;BME280;75286;52.218;5.180;2024-03-29T04:59:19;99058.63;;;8.89;70.00
84924;BME280;75286;52.218;5.180;2024-03-29T05:01:49;99081.41;;;8.92;69.87
84924;BME280;75286;52.218;5.180;2024-03-29T05:04:19;99085.00;;;8.91;70.21
84924;BME280;75286;52.218;5.180;2024-03-29T05:06:51;99089.91;;;8.93;70.55
84924;BME280;75286;52.218;5.180;2024-03-29T05:09:17;99093.28;;;8.93;70.51
84924;BME280;75286;52.218;5.180;2024-03-29T05:11:42;99094.84;;;8.94;71.18
84924;BME280;75286;52.218;5.180;2024-03-29T05:14:08;99090.28;;;8.96;70.97
84924;BME280;75286;52.218;5.180;2024-03-29T05:16:35;99097.81;;;8.98;70.82
84924;BME280;75286;52.218;5.180;2024-03-29T05:19:00;99092.06;;;8.96;71.55
84924;BME280;75286;52.218;5.180;2024-03-29T05:21:26;99082.41;;;8.91;71.36
84924;BME280;75286;52.218;5.180;2024-03-29T05:23:54;99081.19;;;8.94;71.61
84924;BME280;75286;52.218;5.180;2024-03-29T05:26:19;99092.06;;;8.96;71.58
84924;BME280;75286;52.218;5.180;2024-03-29T05:28:45;99087.13;;;8.94;71.53
84924;BME280;75286;52.218;5.180;2024-03-29T05:31:14;99099.59;;;8.97;72.05
84924;BME280;75286;52.218;5.180;2024-03-29T05:33:42;99093.13;;;8.88;72.33
84924;BME280;75286;52.218;5.180;2024-03-29T05:36:08;99090.16;;;8.91;72.95
84924;BME280;75286;52.218;5.180;2024-03-29T05:38:36;99105.03;;;8.89;73.32
84924;BME280;75286;52.218;5.180;2024-03-29T05:41:02;99099.88;;;8.89;73.76
84924;BME280;75286;52.218;5.180;2024-03-29T05:43:28;99116.56;;;8.87;74.69
84924;BME280;75286;52.218;5.180;2024-03-29T05:45:53;99097.94;;;8.85;75.15
84924;BME280;75286;52.218;5.180;2024-03-29T05:48:18;99117.41;;;8.81;75.53
84924;BME280;75286;52.218;5.180;2024-03-29T05:50:46;99114.03;;;8.80;77.26
84924;BME280;75286;52.218;5.180;2024-03-29T05:53:12;99125.84;;;8.70;77.67
84924;BME280;75286;52.218;5.180;2024-03-29T05:55:37;99123.25;;;8.70;78.39
84924;BME280;75286;52.218;5.180;2024-03-29T05:58:02;99126.59;;;8.70;77.67
84924;BME280;75286;52.218;5.180;2024-03-29T06:00:28;99123.47;;;8.68;78.65
84924;BME280;75286;52.218;5.180;2024-03-29T06:02:54;99120.09;;;8.67;79.61
84924;BME280;75286;52.218;5.180;2024-03-29T06:05:20;99113.19;;;8.61;79.66
84924;BME280;75286;52.218;5.180;2024-03-29T06:07:45;99127.50;;;8.57;80.66
84924;BME280;75286;52.218;5.180;2024-03-29T06:10:10;99135.25;;;8.57;81.66
84924;BME280;75286;52.218;5.180;2024-03-29T06:12:36;99142.19;;;8.57;82.31
84924;BME280;75286;52.218;5.180;2024-03-29T06:15:04;99135.69;;;8.48;82.71
84924;BME280;75286;52.218;5.180;2024-03-29T06:17:49;99144.53;;;8.58;83.50
84924;BME280;75286;52.218;5.180;2024-03-29T06:20:14;99149.00;;;8.45;85.38
84924;BME280;75286;52.218;5.180;2024-03-29T06:22:40;99157.16;;;8.35;87.04
84924;BME280;75286;52.218;5.180;2024-03-29T06:25:05;99150.81;;;8.38;87.51
84924;BME280;75286;52.218;5.180;2024-03-29T06:27:32;99134.81;;;8.29;86.97
84924;BME280;75286;52.218;5.180;2024-03-29T06:29:57;99135.81;;;8.28;87.87
84924;BME280;75286;52.218;5.180;2024-03-29T06:32:23;99154.44;;;8.30;87.39
84924;BME280;75286;52.218;5.180;2024-03-29T06:34:48;99148.72;;;8.21;87.40
84924;BME280;75286;52.218;5.180;2024-03-29T06:37:14;99155.84;;;8.19;89.03
84924;BME280;75286;52.218;5.180;2024-03-29T06:39:39;99163.19;;;8.22;89.33
84924;BME280;75286;52.218;5.180;2024-03-29T06:42:05;99162.75;;;8.25;88.42
84924;BME280;75286;52.218;5.180;2024-03-29T06:44:33;99153.44;;;8.24;88.85
84924;BME280;75286;52.218;5.180;2024-03-29T06:47:00;99156.81;;;8.32;89.19
84924;BME280;75286;52.218;5.180;2024-03-29T06:49:26;99141.59;;;8.23;89.61
84924;BME280;75286;52.218;5.180;2024-03-29T06:51:54;99162.91;;;8.37;89.07
84924;BME280;75286;52.218;5.180;2024-03-29T06:54:21;99146.81;;;8.42;88.83
84924;BME280;75286;52.218;5.180;2024-03-29T06:56:48;99156.75;;;8.38;89.47
84924;BME280;75286;52.218;5.180;2024-03-29T06:59:13;99145.47;;;8.39;90.36
84924;BME280;75286;52.218;5.180;2024-03-29T07:01:39;99140.00;;;8.54;89.25
84924;BME280;75286;52.218;5.180;2024-03-29T07:04:04;99135.91;;;8.46;89.44
84924;BME280;75286;52.218;5.180;2024-03-29T07:06:29;99143.56;;;8.53;89.13
84924;BME280;75286;52.218;5.180;2024-03-29T07:08:55;99146.53;;;8.56;88.84
84924;BME280;75286;52.218;5.180;2024-03-29T07:11:20;99149.06;;;8.63;88.31
84924;BME280;75286;52.218;5.180;2024-03-29T07:13:45;99139.75;;;8.62;88.08
84924;BME280;75286;52.218;5.180;2024-03-29T07:16:11;99150.00;;;8.68;88.00
84924;BME280;75286;52.218;5.180;2024-03-29T07:18:36;99157.50;;;8.70;88.34
84924;BME280;75286;52.218;5.180;2024-03-29T07:21:01;99155.03;;;8.82;87.11
84924;BME280;75286;52.218;5.180;2024-03-29T07:23:27;99154.63;;;8.85;86.85
84924;BME280;75286;52.218;5.180;2024-03-29T07:26:02;99148.63;;;8.91;86.54
84924;BME280;75286;52.218;5.180;2024-03-29T07:28:28;99147.78;;;8.97;86.43
84924;BME280;75286;52.218;5.180;2024-03-29T07:30:54;99159.38;;;9.06;86.12
84924;BME280;75286;52.218;5.180;2024-03-29T07:33:20;99165.22;;;9.20;86.09
84924;BME280;75286;52.218;5.180;2024-03-29T07:35:49;99170.81;;;9.35;84.87
84924;BME280;75286;52.218;5.180;2024-03-29T07:38:14;99182.44;;;9.44;84.86
84924;BME280;75286;52.218;5.180;2024-03-29T07:40:43;99180.63;;;9.44;84.03
84924;BME280;75286;52.218;5.180;2024-03-29T07:43:09;99183.19;;;9.44;84.19
84924;BME280;75286;52.218;5.180;2024-03-29T07:45:34;99190.38;;;9.42;83.99
84924;BME280;75286;52.218;5.180;2024-03-29T07:48:00;99193.19;;;9.41;83.82
84924;BME280;75286;52.218;5.180;2024-03-29T07:50:25;99191.25;;;9.36;83.74
84924;BME280;75286;52.218;5.180;2024-03-29T07:52:51;99190.59;;;9.41;83.69
84924;BME280;75286;52.218;5.180;2024-03-29T07:55:16;99205.81;;;9.49;83.85
84924;BME280;75286;52.218;5.180;2024-03-29T07:57:42;99193.38;;;9.58;83.34
84924;BME280;75286;52.218;5.180;2024-03-29T08:00:07;99197.84;;;9.69;82.97
84924;BME280;75286;52.218;5.180;2024-03-29T08:02:35;99184.91;;;9.87;82.26
84924;BME280;75286;52.218;5.180;2024-03-29T08:05:01;99186.06;;;9.91;82.31
84924;BME280;75286;52.218;5.180;2024-03-29T08:07:32;99173.66;;;10.00;82.01
84924;BME280;75286;52.218;5.180;2024-03-29T08:09:57;99180.66;;;10.11;80.61
84924;BME280;75286;52.218;5.180;2024-03-29T08:12:22;99157.06;;;10.07;80.81
84924;BME280;75286;52.218;5.180;2024-03-29T08:14:47;99162.66;;;10.04;79.72
84924;BME280;75286;52.218;5.180;2024-03-29T08:17:14;99161.66;;;10.05;79.86
84924;BME280;75286;52.218;5.180;2024-03-29T08:19:42;99172.19;;;10.04;79.73
84924;BME280;75286;52.218;5.180;2024-03-29T08:22:08;99190.25;;;10.04;80.02
84924;BME280;75286;52.218;5.180;2024-03-29T08:24:36;99189.41;;;10.10;80.03
84924;BME280;75286;52.218;5.180;2024-03-29T08:27:02;99193.69;;;10.16;79.87
84924;BME280;75286;52.218;5.180;2024-03-29T08:29:27;99182.03;;;10.13;80.29
84924;BME280;75286;52.218;5.180;2024-03-29T08:31:53;99172.44;;;10.14;80.00
84924;BME280;75286;52.218;5.180;2024-03-29T08:34:18;99173.41;;;10.19;79.95
84924;BME280;75286;52.218;5.180;2024-03-29T08:36:44;99188.59;;;10.27;79.18
84924;BME280;75286;52.218;5.180;2024-03-29T08:39:09;99184.53;;;10.20;79.60
84924;BME280;75286;52.218;5.180;2024-03-29T08:41:35;99204.75;;;10.23;79.81
84924;BME280;75286;52.218;5.180;2024-03-29T08:44:01;99218.13;;;10.31;78.85
84924;BME280;75286;52.218;5.180;2024-03-29T08:46:26;99220.50;;;10.33;79.45
84924;BME280;75286;52.218;5.180;2024-03-29T08:48:53;99214.44;;;10.27;79.20
84924;BME280;75286;52.218;5.180;2024-03-29T08:51:20;99213.75;;;10.32;79.49
84924;BME280;75286;52.218;5.180;2024-03-29T08:53:46;99223.22;;;10.38;79.58
84924;BME280;75286;52.218;5.180;2024-03-29T08:56:12;99212.47;;;10.41;79.57
84924;BME280;75286;52.218;5.180;2024-03-29T08:58:37;99227.97;;;10.41;79.53
84924;BME280;75286;52.218;5.180;2024-03-29T09:01:04;99218.31;;;10.48;79.25
84924;BME280;75286;52.218;5.180;2024-03-29T09:03:29;99219.34;;;10.47;78.91
84924;BME280;75286;52.218;5.180;2024-03-29T09:05:55;99215.72;;;10.48;78.77
84924;BME280;75286;52.218;5.180;2024-03-29T09:08:20;99223.16;;;10.56;78.42
84924;BME280;75286;52.218;5.180;2024-03-29T09:10:46;99230.03;;;10.62;79.00
84924;BME280;75286;52.218;5.180;2024-03-29T09:13:11;99221.50;;;10.62;78.86
84924;BME280;75286;52.218;5.180;2024-03-29T09:15:37;99235.53;;;10.66;78.60
84924;BME280;75286;52.218;5.180;2024-03-29T09:18:03;99219.81;;;10.67;79.18
84924;BME280;75286;52.218;5.180;2024-03-29T09:20:38;99233.00;;;10.78;79.07
84924;BME280;75286;52.218;5.180;2024-03-29T09:23:04;99228.97;;;10.82;78.71
84924;BME280;75286;52.218;5.180;2024-03-29T09:25:29;99228.97;;;10.82;78.30
84924;BME280;75286;52.218;5.180;2024-03-29T09:27:55;99231.88;;;10.85;78.31
84924;BME280;75286;52.218;5.180;2024-03-29T09:30:20;99253.59;;;10.96;77.99
84924;BME280;75286;52.218;5.180;2024-03-29T09:32:47;99243.72;;;11.04;77.19
84924;BME280;75286;52.218;5.180;2024-03-29T09:35:14;99257.09;;;11.13;77.20
84924;BME280;75286;52.218;5.180;2024-03-29T09:37:40;99249.03;;;11.21;76.92
84924;BME280;75286;52.218;5.180;2024-03-29T09:40:08;99253.53;;;11.26;76.36
84924;BME280;75286;52.218;5.180;2024-03-29T09:42:34;99261.41;;;11.31;76.53
84924;BME280;75286;52.218;5.180;2024-03-29T09:45:01;99261.75;;;11.34;76.00
84924;BME280;75286;52.218;5.180;2024-03-29T09:47:29;99269.25;;;11.24;76.37
84924;BME280;75286;52.218;5.180;2024-03-29T09:49:56;99262.41;;;11.18;76.52
84924;BME280;75286;52.218;5.180;2024-03-29T09:52:23;99269.50;;;11.11;76.69
84924;BME280;75286;52.218;5.180;2024-03-29T09:54:48;99274.09;;;11.09;76.70
84924;BME280;75286;52.218;5.180;2024-03-29T09:57:14;99278.34;;;11.03;76.78
84924;BME280;75286;52.218;5.180;2024-03-29T09:59:39;99291.59;;;10.95;77.02
84924;BME280;75286;52.218;5.180;2024-03-29T10:02:13;99288.78;;;10.97;76.65
84924;BME280;75286;52.218;5.180;2024-03-29T10:04:40;99279.91;;;10.93;76.94
84924;BME280;75286;52.218;5.180;2024-03-29T10:07:05;99273.28;;;10.97;76.66
84924;BME280;75286;52.218;5.180;2024-03-29T10:09:31;99262.94;;;10.97;76.57
84924;BME280;75286;52.218;5.180;2024-03-29T10:11:58;99259.78;;;10.95;77.19
84924;BME280;75286;52.218;5.180;2024-03-29T10:14:23;99263.72;;;10.97;77.01
84924;BME280;75286;52.218;5.180;2024-03-29T10:16:51;99261.75;;;11.23;76.36
84924;BME280;75286;52.218;5.180;2024-03-29T10:19:17;99273.78;;;11.29;75.71
84924;BME280;75286;52.218;5.180;2024-03-29T10:21:42;99268.72;;;11.34;75.85
84924;BME280;75286;52.218;5.180;2024-03-29T10:24:17;99264.34;;;11.46;75.21
84924;BME280;75286;52.218;5.180;2024-03-29T10:26:43;99253.41;;;11.44;75.10
84924;BME280;75286;52.218;5.180;2024-03-29T10:29:09;99273.09;;;11.56;75.08
84924;BME280;75286;52.218;5.180;2024-03-29T10:31:35;99271.97;;;11.52;73.99
84924;BME280;75286;52.218;5.180;2024-03-29T10:34:04;99276.00;;;11.72;74.27
84924;BME280;75286;52.218;5.180;2024-03-29T10:36:34;99283.22;;;11.81;73.28
84924;BME280;75286;52.218;5.180;2024-03-29T10:39:09;99279.72;;;11.99;73.38
84924;BME280;75286;52.218;5.180;2024-03-29T10:41:43;99275.50;;;12.10;73.15
84924;BME280;75286;52.218;5.180;2024-03-29T10:44:10;99293.06;;;12.19;72.86
84924;BME280;75286;52.218;5.180;2024-03-29T10:46:37;99283.91;;;12.28;72.40
84924;BME280;75286;52.218;5.180;2024-03-29T10:49:07;99261.97;;;12.19;72.12
84924;BME280;75286;52.218;5.180;2024-03-29T10:51:34;99272.06;;;12.32;72.18
84924;BME280;75286;52.218;5.180;2024-03-29T10:54:01;99275.16;;;12.46;71.26
84924;BME280;75286;52.218;5.180;2024-03-29T10:56:30;99294.09;;;12.47;70.92
84924;BME280;75286;52.218;5.180;2024-03-29T10:59:01;99290.84;;;12.39;70.79
84924;BME280;75286;52.218;5.180;2024-03-29T11:01:28;99301.13;;;12.34;70.71
84924;BME280;75286;52.218;5.180;2024-03-29T11:03:58;99292.78;;;12.32;70.99
84924;BME280;75286;52.218;5.180;2024-03-29T11:06:28;99297.09;;;12.27;71.81
84924;BME280;75286;52.218;5.180;2024-03-29T11:08:56;99316.13;;;12.32;71.59
84924;BME280;75286;52.218;5.180;2024-03-29T11:11:24;99314.59;;;12.20;71.80
84924;BME280;75286;52.218;5.180;2024-03-29T11:14:02;99332.59;;;12.26;71.81
84924;BME280;75286;52.218;5.180;2024-03-29T11:16:28;99332.69;;;12.43;70.87
84924;BME280;75286;52.218;5.180;2024-03-29T11:18:54;99309.97;;;12.50;71.10
84924;BME280;75286;52.218;5.180;2024-03-29T11:21:20;99312.34;;;12.52;70.70
84924;BME280;75286;52.218;5.180;2024-03-29T11:23:49;99317.72;;;12.62;71.50
84924;BME280;75286;52.218;5.180;2024-03-29T11:26:16;99314.84;;;12.75;69.73
84924;BME280;75286;52.218;5.180;2024-03-29T11:28:48;99308.47;;;12.66;70.12
84924;BME280;75286;52.218;5.180;2024-03-29T11:31:15;99320.72;;;12.70;69.75
84924;BME280;75286;52.218;5.180;2024-03-29T11:36:16;99309.72;;;12.63;70.05
84924;BME280;75286;52.218;5.180;2024-03-29T11:38:45;99307.53;;;12.72;69.64
84924;BME280;75286;52.218;5.180;2024-03-29T11:41:12;99306.00;;;12.88;68.98
84924;BME280;75286;52.218;5.180;2024-03-29T11:43:38;99312.28;;;13.08;68.83
84924;BME280;75286;52.218;5.180;2024-03-29T11:46:06;99298.31;;;13.26;68.08
84924;BME280;75286;52.218;5.180;2024-03-29T11:48:32;99307.75;;;13.49;68.10
84924;BME280;75286;52.218;5.180;2024-03-29T11:50:59;99302.88;;;13.69;66.54
84924;BME280;75286;52.218;5.180;2024-03-29T11:53:24;99306.22;;;13.86;65.45
84924;BME280;75286;52.218;5.180;2024-03-29T11:55:50;99303.84;;;13.85;64.65
84924;BME280;75286;52.218;5.180;2024-03-29T11:58:20;99302.38;;;13.94;64.13
84924;BME280;75286;52.218;5.180;2024-03-29T12:00:45;99298.91;;;14.05;63.74
84924;BME280;75286;52.218;5.180;2024-03-29T12:03:13;99312.19;;;14.09;63.98
84924;BME280;75286;52.218;5.180;2024-03-29T12:05:38;99334.25;;;14.06;63.48
84924;BME280;75286;52.218;5.180;2024-03-29T12:08:04;99314.69;;;13.98;63.62
84924;BME280;75286;52.218;5.180;2024-03-29T12:10:30;99319.25;;;13.91;63.48
84924;BME280;75286;52.218;5.180;2024-03-29T12:12:59;99321.16;;;13.79;63.13
84924;BME280;75286;52.218;5.180;2024-03-29T12:15:27;99335.97;;;13.79;63.94
84924;BME280;75286;52.218;5.180;2024-03-29T12:18:02;99340.94;;;13.80;63.99
84924;BME280;75286;52.218;5.180;2024-03-29T12:20:37;99344.69;;;13.89;63.93
84924;BME280;75286;52.218;5.180;2024-03-29T12:23:09;99335.31;;;13.88;63.20
84924;BME280;75286;52.218;5.180;2024-03-29T12:25:37;99335.81;;;13.85;63.57
84924;BME280;75286;52.218;5.180;2024-03-29T12:28:03;99324.16;;;13.88;63.33
84924;BME280;75286;52.218;5.180;2024-03-29T12:30:31;99328.31;;;13.89;63.55
84924;BME280;75286;52.218;5.180;2024-03-29T12:33:01;99335.41;;;13.93;63.76
84924;BME280;75286;52.218;5.180;2024-03-29T12:35:28;99331.75;;;13.94;63.56
84924;BME280;75286;52.218;5.180;2024-03-29T12:37:54;99326.22;;;14.08;63.87
84924;BME280;75286;52.218;5.180;2024-03-29T12:40:23;99331.41;;;14.08;62.27
84924;BME280;75286;52.218;5.180;2024-03-29T12:42:50;99340.19;;;14.23;61.55
84924;BME280;75286;52.218;5.180;2024-03-29T12:45:17;99338.13;;;14.25;60.47
84924;BME280;75286;52.218;5.180;2024-03-29T12:47:44;99329.91;;;14.12;61.71
84924;BME280;75286;52.218;5.180;2024-03-29T12:50:13;99328.69;;;14.19;61.58
84924;BME280;75286;52.218;5.180;2024-03-29T12:52:40;99337.28;;;14.20;61.77
84924;BME280;75286;52.218;5.180;2024-03-29T12:55:06;99350.63;;;14.28;61.29
84924;BME280;75286;52.218;5.180;2024-03-29T12:57:42;99340.41;;;14.38;60.46
84924;BME280;75286;52.218;5.180;2024-03-29T13:00:10;99341.34;;;14.54;60.25
84924;BME280;75286;52.218;5.180;2024-03-29T13:02:36;99331.19;;;14.53;60.05
84924;BME280;75286;52.218;5.180;2024-03-29T13:05:03;99328.13;;;14.56;60.12
84924;BME280;75286;52.218;5.180;2024-03-29T13:07:29;99331.97;;;14.53;59.93